sensor_id;sensor_type;location;lat;lon;timestamp;P1;durP1;ratioP1;P2;durP2;ratioP2
22826;SDS011;11580;52.562;13.418;2023-02-28T00:01:07;4.20;;;3.80;;
22826;SDS011;11580;52.562;13.418;2023-02-28T00:03:34;4.23;;;3.83;;
22826;SDS011;11580;52.562;13.418;2023-02-28T00:06:02;3.80;;;3.40;;
22826;SDS011;11580;52.562;13.418;2023-02-28T00:08:30;3.50;;;3.20;;
22826;SDS011;11580;52.562;13.418;2023-02-28T00:11:01;3.50;;;3.20;;
22826;SDS011;11580;52.562;13.418;2023-02-28T00:13:30;4.50;;;3.87;;
22826;SDS011;11580;52.562;13.418;2023-02-28T00:16:01;4.87;;;4.47;;
22826;SDS011;11580;52.562;13.418;2023-02-28T00:18:30;3.93;;;3.63;;
22826;SDS011;11580;52.562;13.418;2023-02-28T00:20:58;4.13;;;3.80;;
22826;SDS011;11580;52.562;13.418;2023-02-28T00:23:25;4.00;;;3.70;;
22826;SDS011;11580;52.562;13.418;2023-02-28T00:25:53;3.93;;;3.30;;
22826;SDS011;11580;52.562;13.418;2023-02-28T00:28:22;5.57;;;3.43;;
22826;SDS011;11580;52.562;13.418;2023-02-28T00:30:51;3.90;;;3.43;;
22826;SDS011;11580;52.562;13.418;2023-02-28T00:33:21;3.17;;;2.87;;
22826;SDS011;11580;52.562;13.418;2023-02-28T00:35:48;4.10;;;3.80;;
22826;SDS011;11580;52.562;13.418;2023-02-28T00:38:16;5.37;;;4.83;;
22826;SDS011;11580;52.562;13.418;2023-02-28T00:40:43;4.40;;;3.77;;
22826;SDS011;11580;52.562;13.418;2023-02-28T00:43:11;4.10;;;3.70;;
22826;SDS011;11580;52.562;13.418;2023-02-28T00:45:39;5.00;;;4.23;;
22826;SDS011;11580;52.562;13.418;2023-02-28T00:48:06;5.43;;;4.70;;
22826;SDS011;11580;52.562;13.418;2023-02-28T00:50:33;5.23;;;3.90;;
22826;SDS011;11580;52.562;13.418;2023-02-28T00:53:00;5.20;;;4.70;;
22826;SDS011;11580;52.562;13.418;2023-02-28T00:55:28;4.73;;;4.33;;
22826;SDS011;11580;52.562;13.418;2023-02-28T00:57:55;4.73;;;4.30;;
22826;SDS011;11580;52.562;13.418;2023-02-28T01:00:22;3.87;;;3.57;;
22826;SDS011;11580;52.562;13.418;2023-02-28T01:02:51;7.80;;;4.60;;
22826;SDS011;11580;52.562;13.418;2023-02-28T01:05:18;4.43;;;3.40;;
22826;SDS011;11580;52.562;13.418;2023-02-28T01:07:45;4.13;;;3.73;;
22826;SDS011;11580;52.562;13.418;2023-02-28T01:10:12;4.13;;;3.77;;
22826;SDS011;11580;52.562;13.418;2023-02-28T01:12:39;4.23;;;3.83;;
22826;SDS011;11580;52.562;13.418;2023-02-28T01:15:09;4.10;;;3.70;;
22826;SDS011;11580;52.562;13.418;2023-02-28T01:17:37;3.90;;;3.50;;
22826;SDS011;11580;52.562;13.418;2023-02-28T01:20:06;4.00;;;3.70;;
22826;SDS011;11580;52.562;13.418;2023-02-28T01:22:35;4.13;;;3.60;;
22826;SDS011;11580;52.562;13.418;2023-02-28T01:25:03;4.20;;;3.90;;
22826;SDS011;11580;52.562;13.418;2023-02-28T01:27:31;4.07;;;3.77;;
22826;SDS011;11580;52.562;13.418;2023-02-28T01:30:00;5.20;;;4.00;;
22826;SDS011;11580;52.562;13.418;2023-02-28T01:32:28;5.43;;;3.90;;
22826;SDS011;11580;52.562;13.418;2023-02-28T01:34:55;4.20;;;3.40;;
22826;SDS011;11580;52.562;13.418;2023-02-28T01:37:23;4.27;;;3.87;;
22826;SDS011;11580;52.562;13.418;2023-02-28T01:39:51;4.33;;;3.93;;
22826;SDS011;11580;52.562;13.418;2023-02-28T01:42:19;4.80;;;3.87;;
22826;SDS011;11580;52.562;13.418;2023-02-28T01:44:57;4.80;;;4.30;;
22826;SDS011;11580;52.562;13.418;2023-02-28T01:47:38;4.33;;;3.93;;
22826;SDS011;11580;52.562;13.418;2023-02-28T01:50:11;5.33;;;4.30;;
22826;SDS011;11580;52.562;13.418;2023-02-28T01:52:43;4.10;;;3.70;;
22826;SDS011;11580;52.562;13.418;2023-02-28T01:55:13;5.03;;;4.40;;
22826;SDS011;11580;52.562;13.418;2023-02-28T01:57:45;4.40;;;3.57;;
22826;SDS011;11580;52.562;13.418;2023-02-28T02:00:18;5.27;;;3.90;;
22826;SDS011;11580;52.562;13.418;2023-02-28T02:02:53;4.77;;;4.23;;
22826;SDS011;11580;52.562;13.418;2023-02-28T02:05:24;5.10;;;3.67;;
22826;SDS011;11580;52.562;13.418;2023-02-28T02:07:58;5.47;;;4.57;;
22826;SDS011;11580;52.562;13.418;2023-02-28T02:10:32;5.03;;;4.50;;
22826;SDS011;11580;52.562;13.418;2023-02-28T02:13:13;6.10;;;4.50;;
22826;SDS011;11580;52.562;13.418;2023-02-28T02:16:02;5.93;;;4.87;;
22826;SDS011;11580;52.562;13.418;2023-02-28T02:18:43;4.87;;;4.47;;
22826;SDS011;11580;52.562;13.418;2023-02-28T02:24:33;5.40;;;4.40;;
22826;SDS011;11580;52.562;13.418;2023-02-28T02:31:09;5.47;;;3.90;;
22826;SDS011;11580;52.562;13.418;2023-02-28T02:37:14;5.63;;;4.40;;
22826;SDS011;11580;52.562;13.418;2023-02-28T02:39:55;4.83;;;4.30;;
22826;SDS011;11580;52.562;13.418;2023-02-28T02:42:36;6.10;;;4.47;;
22826;SDS011;11580;52.562;13.418;2023-02-28T02:45:12;4.67;;;4.17;;
22826;SDS011;11580;52.562;13.418;2023-02-28T02:47:45;5.80;;;4.40;;
22826;SDS011;11580;52.562;13.418;2023-02-28T02:50:17;7.17;;;4.90;;
22826;SDS011;11580;52.562;13.418;2023-02-28T02:52:54;5.00;;;4.40;;
22826;SDS011;11580;52.562;13.418;2023-02-28T02:55:28;8.37;;;5.67;;
22826;SDS011;11580;52.562;13.418;2023-02-28T02:58:01;6.10;;;4.60;;
22826;SDS011;11580;52.562;13.418;2023-02-28T03:00:33;7.60;;;5.80;;
22826;SDS011;11580;52.562;13.418;2023-02-28T03:03:05;5.90;;;4.87;;
22826;SDS011;11580;52.562;13.418;2023-02-28T03:05:39;6.23;;;5.07;;
22826;SDS011;11580;52.562;13.418;2023-02-28T03:08:12;6.97;;;5.67;;
22826;SDS011;11580;52.562;13.418;2023-02-28T03:10:41;7.90;;;5.33;;
22826;SDS011;11580;52.562;13.418;2023-02-28T03:16:34;7.40;;;5.57;;
22826;SDS011;11580;52.562;13.418;2023-02-28T03:19:25;6.73;;;5.43;;
22826;SDS011;11580;52.562;13.418;2023-02-28T03:22:19;6.63;;;5.60;;
22826;SDS011;11580;52.562;13.418;2023-02-28T03:25:07;6.87;;;5.73;;
22826;SDS011;11580;52.562;13.418;2023-02-28T03:27:48;9.70;;;6.80;;
22826;SDS011;11580;52.562;13.418;2023-02-28T03:30:29;8.17;;;6.47;;
22826;SDS011;11580;52.562;13.418;2023-02-28T03:33:07;7.33;;;5.97;;
22826;SDS011;11580;52.562;13.418;2023-02-28T03:35:39;8.60;;;5.33;;
22826;SDS011;11580;52.562;13.418;2023-02-28T03:38:15;6.47;;;5.30;;
22826;SDS011;11580;52.562;13.418;2023-02-28T03:40:49;7.17;;;5.70;;
22826;SDS011;11580;52.562;13.418;2023-02-28T03:43:27;7.50;;;6.23;;
22826;SDS011;11580;52.562;13.418;2023-02-28T03:46:00;6.60;;;5.70;;
22826;SDS011;11580;52.562;13.418;2023-02-28T03:48:36;5.73;;;5.20;;
22826;SDS011;11580;52.562;13.418;2023-02-28T03:51:09;6.93;;;5.50;;
22826;SDS011;11580;52.562;13.418;2023-02-28T03:53:45;5.80;;;5.20;;
22826;SDS011;11580;52.562;13.418;2023-02-28T03:56:18;7.07;;;5.73;;
22826;SDS011;11580;52.562;13.418;2023-02-28T03:58:51;7.00;;;4.77;;
22826;SDS011;11580;52.562;13.418;2023-02-28T04:01:25;5.23;;;4.77;;
22826;SDS011;11580;52.562;13.418;2023-02-28T04:03:59;6.27;;;5.10;;
22826;SDS011;11580;52.562;13.418;2023-02-28T04:06:27;6.03;;;5.10;;
22826;SDS011;11580;52.562;13.418;2023-02-28T04:09:00;8.00;;;5.07;;
22826;SDS011;11580;52.562;13.418;2023-02-28T04:11:30;5.60;;;5.03;;
22826;SDS011;11580;52.562;13.418;2023-02-28T04:14:01;7.20;;;5.43;;
22826;SDS011;11580;52.562;13.418;2023-02-28T04:16:29;5.17;;;4.67;;
22826;SDS011;11580;52.562;13.418;2023-02-28T04:18:57;5.80;;;5.20;;
22826;SDS011;11580;52.562;13.418;2023-02-28T04:21:27;7.17;;;5.17;;
22826;SDS011;11580;52.562;13.418;2023-02-28T04:23:54;8.90;;;5.10;;
22826;SDS011;11580;52.562;13.418;2023-02-28T04:26:27;6.33;;;5.37;;
22826;SDS011;11580;52.562;13.418;2023-02-28T04:28:56;6.80;;;5.20;;
22826;SDS011;11580;52.562;13.418;2023-02-28T04:31:23;5.80;;;5.20;;
22826;SDS011;11580;52.562;13.418;2023-02-28T04:33:50;7.00;;;4.90;;
22826;SDS011;11580;52.562;13.418;2023-02-28T04:36:18;5.33;;;4.80;;
22826;SDS011;11580;52.562;13.418;2023-02-28T04:38:45;5.63;;;5.13;;
22826;SDS011;11580;52.562;13.418;2023-02-28T04:41:13;5.83;;;5.30;;
22826;SDS011;11580;52.562;13.418;2023-02-28T04:43:41;8.83;;;5.60;;
22826;SDS011;11580;52.562;13.418;2023-02-28T04:46:09;5.77;;;4.90;;
22826;SDS011;11580;52.562;13.418;2023-02-28T04:48:37;6.53;;;5.73;;
22826;SDS011;11580;52.562;13.418;2023-02-28T04:51:06;6.80;;;5.40;;
22826;SDS011;11580;52.562;13.418;2023-02-28T04:53:36;6.50;;;5.83;;
22826;SDS011;11580;52.562;13.418;2023-02-28T04:56:05;9.13;;;6.03;;
22826;SDS011;11580;52.562;13.418;2023-02-28T04:58:34;5.50;;;4.93;;
22826;SDS011;11580;52.562;13.418;2023-02-28T05:01:03;5.23;;;4.73;;
22826;SDS011;11580;52.562;13.418;2023-02-28T05:03:38;6.20;;;4.80;;
22826;SDS011;11580;52.562;13.418;2023-02-28T05:06:06;6.70;;;5.30;;
22826;SDS011;11580;52.562;13.418;2023-02-28T05:08:34;6.90;;;5.37;;
22826;SDS011;11580;52.562;13.418;2023-02-28T05:11:01;5.60;;;5.00;;
22826;SDS011;11580;52.562;13.418;2023-02-28T05:13:29;7.10;;;5.60;;
22826;SDS011;11580;52.562;13.418;2023-02-28T05:15:56;5.90;;;5.30;;
22826;SDS011;11580;52.562;13.418;2023-02-28T05:18:25;8.70;;;5.53;;
22826;SDS011;11580;52.562;13.418;2023-02-28T05:20:52;8.97;;;7.47;;
22826;SDS011;11580;52.562;13.418;2023-02-28T05:23:19;11.83;;;8.70;;
22826;SDS011;11580;52.562;13.418;2023-02-28T05:25:49;8.87;;;6.53;;
22826;SDS011;11580;52.562;13.418;2023-02-28T05:28:17;8.33;;;6.43;;
22826;SDS011;11580;52.562;13.418;2023-02-28T05:30:47;10.13;;;8.00;;
22826;SDS011;11580;52.562;13.418;2023-02-28T05:33:15;12.97;;;9.30;;
22826;SDS011;11580;52.562;13.418;2023-02-28T05:35:43;11.80;;;8.50;;
22826;SDS011;11580;52.562;13.418;2023-02-28T05:38:10;11.37;;;7.87;;
22826;SDS011;11580;52.562;13.418;2023-02-28T05:40:38;8.20;;;7.03;;
22826;SDS011;11580;52.562;13.418;2023-02-28T05:43:05;11.80;;;8.47;;
22826;SDS011;11580;52.562;13.418;2023-02-28T05:45:37;10.23;;;8.47;;
22826;SDS011;11580;52.562;13.418;2023-02-28T05:48:04;10.43;;;8.50;;
22826;SDS011;11580;52.562;13.418;2023-02-28T05:50:32;9.17;;;8.20;;
22826;SDS011;11580;52.562;13.418;2023-02-28T05:53:00;8.93;;;7.80;;
22826;SDS011;11580;52.562;13.418;2023-02-28T05:55:28;7.80;;;6.83;;
22826;SDS011;11580;52.562;13.418;2023-02-28T05:57:55;8.37;;;7.07;;
22826;SDS011;11580;52.562;13.418;2023-02-28T06:00:22;7.27;;;6.57;;
22826;SDS011;11580;52.562;13.418;2023-02-28T06:02:50;8.53;;;7.60;;
22826;SDS011;11580;52.562;13.418;2023-02-28T06:05:21;8.27;;;6.47;;
22826;SDS011;11580;52.562;13.418;2023-02-28T06:07:49;7.80;;;7.00;;
22826;SDS011;11580;52.562;13.418;2023-02-28T06:10:17;9.63;;;6.83;;
22826;SDS011;11580;52.562;13.418;2023-02-28T06:12:45;8.47;;;6.73;;
22826;SDS011;11580;52.562;13.418;2023-02-28T06:15:12;8.73;;;7.00;;
22826;SDS011;11580;52.562;13.418;2023-02-28T06:17:42;8.57;;;6.20;;
22826;SDS011;11580;52.562;13.418;2023-02-28T06:20:11;8.50;;;6.77;;
22826;SDS011;11580;52.562;13.418;2023-02-28T06:22:39;8.83;;;6.73;;
22826;SDS011;11580;52.562;13.418;2023-02-28T06:25:06;7.07;;;6.37;;
22826;SDS011;11580;52.562;13.418;2023-02-28T06:27:37;8.77;;;7.40;;
22826;SDS011;11580;52.562;13.418;2023-02-28T06:30:04;8.13;;;7.00;;
22826;SDS011;11580;52.562;13.418;2023-02-28T06:32:33;12.07;;;7.70;;
22826;SDS011;11580;52.562;13.418;2023-02-28T06:35:01;10.00;;;7.97;;
22826;SDS011;11580;52.562;13.418;2023-02-28T06:37:28;13.80;;;9.53;;
22826;SDS011;11580;52.562;13.418;2023-02-28T06:39:57;9.73;;;8.17;;
22826;SDS011;11580;52.562;13.418;2023-02-28T06:42:25;8.70;;;7.90;;
22826;SDS011;11580;52.562;13.418;2023-02-28T06:44:55;10.60;;;7.40;;
22826;SDS011;11580;52.562;13.418;2023-02-28T06:47:23;9.77;;;8.77;;
22826;SDS011;11580;52.562;13.418;2023-02-28T06:49:50;9.00;;;8.10;;
22826;SDS011;11580;52.562;13.418;2023-02-28T06:52:17;9.23;;;8.30;;
22826;SDS011;11580;52.562;13.418;2023-02-28T06:54:44;10.23;;;8.80;;
22826;SDS011;11580;52.562;13.418;2023-02-28T06:57:12;9.43;;;8.47;;
22826;SDS011;11580;52.562;13.418;2023-02-28T06:59:39;11.83;;;9.60;;
22826;SDS011;11580;52.562;13.418;2023-02-28T07:02:08;12.30;;;9.60;;
22826;SDS011;11580;52.562;13.418;2023-02-28T07:04:35;11.17;;;9.87;;
22826;SDS011;11580;52.562;13.418;2023-02-28T07:07:05;10.70;;;9.70;;
22826;SDS011;11580;52.562;13.418;2023-02-28T07:09:32;9.20;;;8.27;;
22826;SDS011;11580;52.562;13.418;2023-02-28T07:12:00;10.90;;;9.30;;
22826;SDS011;11580;52.562;13.418;2023-02-28T07:14:27;8.90;;;8.10;;
22826;SDS011;11580;52.562;13.418;2023-02-28T07:16:54;9.60;;;8.50;;
22826;SDS011;11580;52.562;13.418;2023-02-28T07:19:23;11.33;;;9.30;;
22826;SDS011;11580;52.562;13.418;2023-02-28T07:21:50;12.73;;;10.30;;
22826;SDS011;11580;52.562;13.418;2023-02-28T07:24:17;8.90;;;8.00;;
22826;SDS011;11580;52.562;13.418;2023-02-28T07:26:44;10.00;;;9.00;;
22826;SDS011;11580;52.562;13.418;2023-02-28T07:29:11;9.53;;;8.73;;
22826;SDS011;11580;52.562;13.418;2023-02-28T07:31:38;9.57;;;8.57;;
22826;SDS011;11580;52.562;13.418;2023-02-28T07:34:06;9.93;;;8.60;;
22826;SDS011;11580;52.562;13.418;2023-02-28T07:36:34;15.97;;;8.73;;
22826;SDS011;11580;52.562;13.418;2023-02-28T07:39:01;10.20;;;8.80;;
22826;SDS011;11580;52.562;13.418;2023-02-28T07:41:29;8.93;;;8.10;;
22826;SDS011;11580;52.562;13.418;2023-02-28T07:43:59;10.17;;;9.20;;
22826;SDS011;11580;52.562;13.418;2023-02-28T07:46:27;10.07;;;9.10;;
22826;SDS011;11580;52.562;13.418;2023-02-28T07:49:00;10.37;;;9.33;;
22826;SDS011;11580;52.562;13.418;2023-02-28T07:51:28;11.23;;;10.10;;
22826;SDS011;11580;52.562;13.418;2023-02-28T07:53:57;10.00;;;8.97;;
22826;SDS011;11580;52.562;13.418;2023-02-28T07:56:24;10.53;;;9.50;;
22826;SDS011;11580;52.562;13.418;2023-02-28T07:58:51;10.70;;;9.57;;
22826;SDS011;11580;52.562;13.418;2023-02-28T08:01:18;9.70;;;8.80;;
22826;SDS011;11580;52.562;13.418;2023-02-28T08:03:45;10.70;;;8.80;;
22826;SDS011;11580;52.562;13.418;2023-02-28T08:06:15;10.77;;;9.67;;
22826;SDS011;11580;52.562;13.418;2023-02-28T08:08:45;10.37;;;9.37;;
22826;SDS011;11580;52.562;13.418;2023-02-28T08:11:14;9.03;;;8.13;;
22826;SDS011;11580;52.562;13.418;2023-02-28T08:13:42;10.00;;;8.20;;
22826;SDS011;11580;52.562;13.418;2023-02-28T08:16:10;8.70;;;7.90;;
22826;SDS011;11580;52.562;13.418;2023-02-28T08:18:42;8.80;;;7.83;;
22826;SDS011;11580;52.562;13.418;2023-02-28T08:21:10;8.10;;;7.30;;
22826;SDS011;11580;52.562;13.418;2023-02-28T08:23:38;8.33;;;7.27;;
22826;SDS011;11580;52.562;13.418;2023-02-28T08:26:05;7.27;;;6.57;;
22826;SDS011;11580;52.562;13.418;2023-02-28T08:28:34;9.13;;;7.00;;
22826;SDS011;11580;52.562;13.418;2023-02-28T08:31:01;8.63;;;7.07;;
22826;SDS011;11580;52.562;13.418;2023-02-28T08:33:35;8.00;;;7.00;;
22826;SDS011;11580;52.562;13.418;2023-02-28T08:36:04;7.50;;;6.13;;
22826;SDS011;11580;52.562;13.418;2023-02-28T08:38:33;7.07;;;5.83;;
22826;SDS011;11580;52.562;13.418;2023-02-28T08:41:00;5.80;;;5.20;;
22826;SDS011;11580;52.562;13.418;2023-02-28T08:43:33;6.10;;;5.30;;
22826;SDS011;11580;52.562;13.418;2023-02-28T08:46:01;6.27;;;5.17;;
22826;SDS011;11580;52.562;13.418;2023-02-28T08:48:30;6.90;;;6.20;;
22826;SDS011;11580;52.562;13.418;2023-02-28T08:51:04;6.73;;;6.03;;
22826;SDS011;11580;52.562;13.418;2023-02-28T08:53:34;5.50;;;4.70;;
22826;SDS011;11580;52.562;13.418;2023-02-28T08:56:02;4.13;;;3.73;;
22826;SDS011;11580;52.562;13.418;2023-02-28T08:58:34;4.60;;;4.13;;
22826;SDS011;11580;52.562;13.418;2023-02-28T09:01:07;3.57;;;3.27;;
22826;SDS011;11580;52.562;13.418;2023-02-28T09:03:35;2.70;;;2.50;;
22826;SDS011;11580;52.562;13.418;2023-02-28T09:06:03;2.90;;;2.70;;
22826;SDS011;11580;52.562;13.418;2023-02-28T09:08:31;3.20;;;2.57;;
22826;SDS011;11580;52.562;13.418;2023-02-28T09:10:58;3.53;;;2.50;;
22826;SDS011;11580;52.562;13.418;2023-02-28T09:13:27;3.10;;;2.90;;
22826;SDS011;11580;52.562;13.418;2023-02-28T09:15:58;3.00;;;2.70;;
22826;SDS011;11580;52.562;13.418;2023-02-28T09:18:27;2.20;;;2.00;;
22826;SDS011;11580;52.562;13.418;2023-02-28T09:20:54;2.53;;;2.33;;
22826;SDS011;11580;52.562;13.418;2023-02-28T09:23:22;3.63;;;2.67;;
22826;SDS011;11580;52.562;13.418;2023-02-28T09:25:51;3.00;;;2.70;;
22826;SDS011;11580;52.562;13.418;2023-02-28T09:28:21;3.63;;;2.60;;
22826;SDS011;11580;52.562;13.418;2023-02-28T09:30:49;2.10;;;2.00;;
22826;SDS011;11580;52.562;13.418;2023-02-28T09:33:20;3.03;;;2.40;;
22826;SDS011;11580;52.562;13.418;2023-02-28T09:35:48;2.33;;;2.13;;
22826;SDS011;11580;52.562;13.418;2023-02-28T09:38:16;2.20;;;2.00;;
22826;SDS011;11580;52.562;13.418;2023-02-28T09:40:47;2.30;;;2.10;;
22826;SDS011;11580;52.562;13.418;2023-02-28T09:43:17;2.30;;;1.87;;
22826;SDS011;11580;52.562;13.418;2023-02-28T09:45:50;2.03;;;1.93;;
22826;SDS011;11580;52.562;13.418;2023-02-28T09:48:29;1.87;;;1.77;;
22826;SDS011;11580;52.562;13.418;2023-02-28T09:51:05;2.17;;;2.07;;
22826;SDS011;11580;52.562;13.418;2023-02-28T09:53:49;2.50;;;2.30;;
22826;SDS011;11580;52.562;13.418;2023-02-28T09:56:18;2.53;;;2.33;;
22826;SDS011;11580;52.562;13.418;2023-02-28T09:58:53;1.90;;;1.80;;
22826;SDS011;11580;52.562;13.418;2023-02-28T10:01:28;2.33;;;2.13;;
22826;SDS011;11580;52.562;13.418;2023-02-28T10:04:08;2.27;;;1.90;;
22826;SDS011;11580;52.562;13.418;2023-02-28T10:06:50;1.70;;;1.60;;
22826;SDS011;11580;52.562;13.418;2023-02-28T10:09:21;1.63;;;1.50;;
22826;SDS011;11580;52.562;13.418;2023-02-28T10:11:52;2.00;;;1.90;;
22826;SDS011;11580;52.562;13.418;2023-02-28T10:14:27;1.83;;;1.60;;
22826;SDS011;11580;52.562;13.418;2023-02-28T10:16:59;2.20;;;1.50;;
22826;SDS011;11580;52.562;13.418;2023-02-28T10:19:33;2.83;;;1.90;;
22826;SDS011;11580;52.562;13.418;2023-02-28T10:22:10;2.20;;;2.00;;
22826;SDS011;11580;52.562;13.418;2023-02-28T10:24:42;1.90;;;1.80;;
22826;SDS011;11580;52.562;13.418;2023-02-28T10:27:13;3.13;;;2.40;;
22826;SDS011;11580;52.562;13.418;2023-02-28T10:29:45;2.23;;;1.63;;
22826;SDS011;11580;52.562;13.418;2023-02-28T10:32:17;1.90;;;1.70;;
22826;SDS011;11580;52.562;13.418;2023-02-28T10:34:51;1.73;;;1.63;;
22826;SDS011;11580;52.562;13.418;2023-02-28T10:37:23;2.10;;;1.90;;
22826;SDS011;11580;52.562;13.418;2023-02-28T10:39:51;2.30;;;2.10;;
22826;SDS011;11580;52.562;13.418;2023-02-28T10:42:19;2.43;;;2.23;;
22826;SDS011;11580;52.562;13.418;2023-02-28T10:45:04;2.50;;;2.30;;
22826;SDS011;11580;52.562;13.418;2023-02-28T10:47:39;1.57;;;1.47;;
22826;SDS011;11580;52.562;13.418;2023-02-28T10:53:28;1.80;;;1.70;;
22826;SDS011;11580;52.562;13.418;2023-02-28T10:56:00;1.97;;;1.87;;
22826;SDS011;11580;52.562;13.418;2023-02-28T10:58:30;2.27;;;2.07;;
22826;SDS011;11580;52.562;13.418;2023-02-28T11:01:13;2.40;;;2.20;;
22826;SDS011;11580;52.562;13.418;2023-02-28T11:03:43;3.70;;;1.90;;
22826;SDS011;11580;52.562;13.418;2023-02-28T11:06:14;2.03;;;1.83;;
22826;SDS011;11580;52.562;13.418;2023-02-28T11:08:47;1.90;;;1.80;;
22826;SDS011;11580;52.562;13.418;2023-02-28T11:11:18;2.00;;;1.70;;
22826;SDS011;11580;52.562;13.418;2023-02-28T11:13:49;1.70;;;1.60;;
22826;SDS011;11580;52.562;13.418;2023-02-28T11:16:19;2.13;;;1.90;;
22826;SDS011;11580;52.562;13.418;2023-02-28T11:18:48;2.13;;;1.80;;
22826;SDS011;11580;52.562;13.418;2023-02-28T11:21:21;2.07;;;1.97;;
22826;SDS011;11580;52.562;13.418;2023-02-28T11:23:53;1.90;;;1.80;;
22826;SDS011;11580;52.562;13.418;2023-02-28T11:26:41;2.13;;;2.03;;
22826;SDS011;11580;52.562;13.418;2023-02-28T11:29:18;2.50;;;2.13;;
22826;SDS011;11580;52.562;13.418;2023-02-28T11:32:04;2.83;;;1.90;;
22826;SDS011;11580;52.562;13.418;2023-02-28T11:34:40;1.90;;;1.80;;
22826;SDS011;11580;52.562;13.418;2023-02-28T11:37:14;2.43;;;2.23;;
22826;SDS011;11580;52.562;13.418;2023-02-28T11:39:45;2.90;;;2.27;;
22826;SDS011;11580;52.562;13.418;2023-02-28T11:42:23;2.70;;;2.50;;
22826;SDS011;11580;52.562;13.418;2023-02-28T11:45:21;2.03;;;1.93;;
22826;SDS011;11580;52.562;13.418;2023-02-28T11:48:08;2.70;;;2.50;;
22826;SDS011;11580;52.562;13.418;2023-02-28T11:50:57;2.57;;;2.37;;
22826;SDS011;11580;52.562;13.418;2023-02-28T11:53:46;2.97;;;2.60;;
22826;SDS011;11580;52.562;13.418;2023-02-28T11:56:30;2.43;;;2.33;;
22826;SDS011;11580;52.562;13.418;2023-02-28T11:59:06;2.57;;;2.30;;
22826;SDS011;11580;52.562;13.418;2023-02-28T12:02:02;3.13;;;2.83;;
22826;SDS011;11580;52.562;13.418;2023-02-28T12:04:47;2.70;;;2.50;;
22826;SDS011;11580;52.562;13.418;2023-02-28T12:07:39;3.23;;;2.93;;
22826;SDS011;11580;52.562;13.418;2023-02-28T12:10:21;3.00;;;2.80;;
22826;SDS011;11580;52.562;13.418;2023-02-28T12:15:50;3.00;;;2.70;;
22826;SDS011;11580;52.562;13.418;2023-02-28T12:21:59;3.33;;;3.10;;
22826;SDS011;11580;52.562;13.418;2023-02-28T12:25:01;3.40;;;3.10;;
22826;SDS011;11580;52.562;13.418;2023-02-28T12:28:13;3.33;;;2.80;;
22826;SDS011;11580;52.562;13.418;2023-02-28T12:30:49;2.90;;;2.70;;
22826;SDS011;11580;52.562;13.418;2023-02-28T12:33:24;3.17;;;2.87;;
22826;SDS011;11580;52.562;13.418;2023-02-28T12:36:02;3.70;;;3.17;;
22826;SDS011;11580;52.562;13.418;2023-02-28T12:38:38;5.53;;;2.83;;
22826;SDS011;11580;52.562;13.418;2023-02-28T12:41:13;3.43;;;3.13;;
22826;SDS011;11580;52.562;13.418;2023-02-28T12:43:46;3.43;;;3.13;;
22826;SDS011;11580;52.562;13.418;2023-02-28T12:46:21;3.27;;;2.97;;
22826;SDS011;11580;52.562;13.418;2023-02-28T12:48:55;2.83;;;2.63;;
22826;SDS011;11580;52.562;13.418;2023-02-28T12:51:25;2.87;;;2.67;;
22826;SDS011;11580;52.562;13.418;2023-02-28T12:53:56;3.63;;;2.97;;
22826;SDS011;11580;52.562;13.418;2023-02-28T12:56:38;3.33;;;3.00;;
22826;SDS011;11580;52.562;13.418;2023-02-28T12:59:18;4.00;;;2.60;;
22826;SDS011;11580;52.562;13.418;2023-02-28T13:01:58;3.40;;;3.10;;
22826;SDS011;11580;52.562;13.418;2023-02-28T13:04:53;3.97;;;3.00;;
22826;SDS011;11580;52.562;13.418;2023-02-28T13:10:42;3.47;;;3.20;;
22826;SDS011;11580;52.562;13.418;2023-02-28T13:13:19;3.60;;;3.30;;
22826;SDS011;11580;52.562;13.418;2023-02-28T13:15:56;3.47;;;3.17;;
22826;SDS011;11580;52.562;13.418;2023-02-28T13:18:31;3.20;;;2.80;;
22826;SDS011;11580;52.562;13.418;2023-02-28T13:21:05;3.37;;;3.07;;
22826;SDS011;11580;52.562;13.418;2023-02-28T13:23:56;3.13;;;2.83;;
22826;SDS011;11580;52.562;13.418;2023-02-28T13:33:32;3.63;;;3.20;;
22826;SDS011;11580;52.562;13.418;2023-02-28T13:36:23;3.13;;;2.83;;
22826;SDS011;11580;52.562;13.418;2023-02-28T13:38:55;3.10;;;2.90;;
22826;SDS011;11580;52.562;13.418;2023-02-28T13:41:46;3.47;;;3.00;;
22826;SDS011;11580;52.562;13.418;2023-02-28T13:44:15;3.80;;;3.50;;
22826;SDS011;11580;52.562;13.418;2023-02-28T13:49:50;3.60;;;3.30;;
22826;SDS011;11580;52.562;13.418;2023-02-28T13:52:20;3.60;;;2.90;;
22826;SDS011;11580;52.562;13.418;2023-02-28T13:54:57;3.30;;;3.00;;
22826;SDS011;11580;52.562;13.418;2023-02-28T13:57:54;2.70;;;2.50;;
22826;SDS011;11580;52.562;13.418;2023-02-28T14:00:46;3.07;;;2.70;;
22826;SDS011;11580;52.562;13.418;2023-02-28T14:06:46;3.23;;;2.93;;
22826;SDS011;11580;52.562;13.418;2023-02-28T14:09:17;2.50;;;2.30;;
22826;SDS011;11580;52.562;13.418;2023-02-28T14:11:50;3.30;;;3.00;;
22826;SDS011;11580;52.562;13.418;2023-02-28T14:17:22;2.67;;;2.47;;
22826;SDS011;11580;52.562;13.418;2023-02-28T14:19:53;3.77;;;3.47;;
22826;SDS011;11580;52.562;13.418;2023-02-28T14:22:37;2.53;;;2.33;;
22826;SDS011;11580;52.562;13.418;2023-02-28T14:25:20;3.57;;;3.27;;
22826;SDS011;11580;52.562;13.418;2023-02-28T14:28:00;3.00;;;2.80;;
22826;SDS011;11580;52.562;13.418;2023-02-28T14:30:51;3.63;;;3.17;;
22826;SDS011;11580;52.562;13.418;2023-02-28T14:36:41;2.90;;;2.70;;
22826;SDS011;11580;52.562;13.418;2023-02-28T14:39:11;3.40;;;2.60;;
22826;SDS011;11580;52.562;13.418;2023-02-28T14:41:41;3.27;;;2.97;;
22826;SDS011;11580;52.562;13.418;2023-02-28T14:44:14;3.23;;;3.03;;
22826;SDS011;11580;52.562;13.418;2023-02-28T14:46:46;5.23;;;3.40;;
22826;SDS011;11580;52.562;13.418;2023-02-28T14:49:19;3.40;;;3.10;;
22826;SDS011;11580;52.562;13.418;2023-02-28T14:52:01;2.87;;;2.67;;
22826;SDS011;11580;52.562;13.418;2023-02-28T14:54:34;2.40;;;2.23;;
22826;SDS011;11580;52.562;13.418;2023-02-28T14:57:03;3.50;;;3.17;;
22826;SDS011;11580;52.562;13.418;2023-02-28T14:59:32;3.40;;;3.10;;
22826;SDS011;11580;52.562;13.418;2023-02-28T15:02:18;2.80;;;2.60;;
22826;SDS011;11580;52.562;13.418;2023-02-28T15:04:54;3.10;;;2.90;;
22826;SDS011;11580;52.562;13.418;2023-02-28T15:07:25;3.00;;;2.70;;
22826;SDS011;11580;52.562;13.418;2023-02-28T15:10:15;3.70;;;3.30;;
22826;SDS011;11580;52.562;13.418;2023-02-28T15:12:49;3.33;;;3.03;;
22826;SDS011;11580;52.562;13.418;2023-02-28T15:15:22;3.37;;;3.10;;
22826;SDS011;11580;52.562;13.418;2023-02-28T15:17:56;3.30;;;3.00;;
22826;SDS011;11580;52.562;13.418;2023-02-28T15:20:26;3.73;;;3.43;;
22826;SDS011;11580;52.562;13.418;2023-02-28T15:22:55;5.00;;;4.17;;
22826;SDS011;11580;52.562;13.418;2023-02-28T15:25:24;3.50;;;3.20;;
22826;SDS011;11580;52.562;13.418;2023-02-28T15:27:53;4.07;;;3.70;;
22826;SDS011;11580;52.562;13.418;2023-02-28T15:30:24;3.73;;;3.43;;
22826;SDS011;11580;52.562;13.418;2023-02-28T15:33:05;4.00;;;3.67;;
22826;SDS011;11580;52.562;13.418;2023-02-28T15:35:45;3.80;;;3.40;;
22826;SDS011;11580;52.562;13.418;2023-02-28T15:38:16;3.50;;;3.20;;
22826;SDS011;11580;52.562;13.418;2023-02-28T15:40:50;3.47;;;3.10;;
22826;SDS011;11580;52.562;13.418;2023-02-28T15:43:23;3.50;;;3.23;;
22826;SDS011;11580;52.562;13.418;2023-02-28T15:45:55;3.57;;;3.13;;
22826;SDS011;11580;52.562;13.418;2023-02-28T15:48:27;3.40;;;3.10;;
22826;SDS011;11580;52.562;13.418;2023-02-28T15:50:57;3.50;;;3.20;;